createdAt,value
2023-03-21T00:00:04.988Z,100.00
2023-03-21T00:02:33.615Z,99.40
2023-03-21T00:05:13.290Z,100.00
2023-03-21T00:07:43.654Z,100.00
2023-03-21T00:10:18.173Z,100.00
2023-03-21T00:12:55.407Z,99.82
2023-03-21T00:15:30.627Z,100.00
2023-03-21T00:18:11.549Z,100.00
2023-03-21T00:20:39.784Z,99.89
2023-03-21T00:23:07.954Z,99.34
2023-03-21T00:25:36.341Z,100.00
2023-03-21T00:28:08.640Z,100.00
2023-03-21T00:30:41.059Z,99.95
2023-03-21T00:33:22.043Z,99.93
2023-03-21T00:36:02.532Z,100.00
2023-03-21T00:38:35.051Z,100.00
2023-03-21T00:41:18.897Z,100.00
2023-03-21T00:43:55.649Z,100.00
2023-03-21T00:46:30.034Z,100.00
2023-03-21T00:49:01.227Z,100.00
2023-03-21T00:51:32.220Z,100.00
2023-03-21T00:54:00.471Z,100.00
2023-03-21T00:56:29.492Z,100.00
2023-03-21T00:58:57.612Z,100.00
2023-03-21T01:01:32.275Z,100.00
2023-03-21T01:04:05.628Z,100.00
2023-03-21T01:06:40.127Z,100.00
2023-03-21T01:09:09.385Z,100.00
2023-03-21T01:11:40.278Z,100.00
2023-03-21T01:14:21.477Z,100.00
2023-03-21T01:16:53.722Z,100.00
2023-03-21T01:19:40.631Z,100.00
2023-03-21T01:22:14.949Z,100.00
2023-03-21T01:24:52.460Z,100.00
2023-03-21T01:27:22.909Z,100.00
2023-03-21T01:29:52.479Z,100.00
2023-03-21T01:32:26.361Z,100.00
2023-03-21T01:34:54.561Z,100.00
2023-03-21T01:37:26.582Z,100.00
2023-03-21T01:39:54.784Z,100.00
2023-03-21T01:42:23.713Z,100.00
2023-03-21T01:44:57.902Z,100.00
2023-03-21T01:47:32.122Z,100.00
2023-03-21T01:50:08.330Z,100.00
2023-03-21T01:52:42.861Z,100.00
2023-03-21T01:55:16.258Z,100.00
2023-03-21T01:58:05.800Z,100.00
2023-03-21T02:00:55.402Z,100.00
2023-03-21T02:03:38.503Z,100.00
2023-03-21T02:06:30.423Z,100.00
2023-03-21T02:09:08.835Z,100.00
2023-03-21T02:11:38.926Z,100.00
2023-03-21T02:14:11.505Z,100.00
2023-03-21T02:17:01.658Z,100.00
2023-03-21T02:20:02.705Z,100.00
2023-03-21T02:23:01.366Z,100.00
2023-03-21T02:26:05.205Z,100.00
2023-03-21T02:28:39.180Z,100.00
2023-03-21T02:31:28.396Z,100.00
2023-03-21T02:34:24.994Z,100.00
2023-03-21T02:37:03.380Z,100.00
2023-03-21T02:39:45.675Z,100.00
2023-03-21T02:42:21.449Z,100.00
2023-03-21T02:44:57.302Z,100.00
2023-03-21T02:47:35.817Z,100.00
2023-03-21T02:50:12.685Z,100.00
2023-03-21T02:52:48.693Z,100.00
2023-03-21T02:55:21.465Z,100.00
2023-03-21T02:58:06.916Z,100.00
2023-03-21T03:00:42.999Z,100.00
2023-03-21T03:04:50.688Z,100.00
2023-03-21T03:07:37.603Z,100.00
2023-03-21T03:10:28.496Z,100.00
2023-03-21T03:13:06.810Z,100.00
2023-03-21T03:15:45.946Z,100.00
2023-03-21T03:18:22.261Z,100.00
2023-03-21T03:21:03.302Z,100.00
2023-03-21T03:23:38.890Z,100.00
2023-03-21T03:26:13.590Z,100.00
2023-03-21T03:28:50.218Z,100.00
2023-03-21T03:31:26.148Z,100.00
2023-03-21T03:34:04.551Z,100.00
2023-03-21T03:36:41.826Z,100.00
2023-03-21T03:39:15.952Z,100.00
2023-03-21T03:42:27.507Z,100.00
2023-03-21T03:44:52.911Z,100.00
2023-03-21T03:47:32.902Z,100.00
2023-03-21T03:50:10.360Z,100.00
2023-03-21T03:52:55.622Z,100.00
2023-03-21T03:55:34.459Z,100.00
2023-03-21T03:58:21.308Z,100.00
2023-03-21T04:00:51.787Z,100.00
2023-03-21T04:03:20.152Z,100.00
2023-03-21T04:05:51.807Z,100.00
2023-03-21T04:08:23.371Z,100.00
2023-03-21T04:10:57.302Z,100.00
2023-03-21T04:13:26.559Z,100.00
2023-03-21T04:16:08.749Z,100.00
2023-03-21T04:18:39.133Z,100.00
2023-03-21T04:21:12.829Z,100.00
2023-03-21T04:23:45.301Z,100.00
2023-03-21T04:26:13.451Z,100.00
2023-03-21T04:28:53.496Z,100.00
2023-03-21T04:31:27.292Z,100.00
2023-03-21T04:34:10.203Z,100.00
2023-03-21T04:36:44.532Z,100.00
2023-03-21T04:39:15.143Z,100.00
2023-03-21T04:41:46.822Z,100.00
2023-03-21T04:44:17.098Z,100.00
2023-03-21T04:46:46.265Z,100.00
2023-03-21T04:49:14.886Z,100.00
2023-03-21T04:51:45.517Z,100.00
2023-03-21T04:54:21.044Z,100.00
2023-03-21T04:56:49.426Z,100.00
2023-03-21T04:59:17.579Z,100.00
2023-03-21T05:01:46.494Z,100.00
2023-03-21T05:04:17.642Z,100.00
2023-03-21T05:06:47.023Z,100.00
2023-03-21T05:09:18.851Z,100.00
2023-03-21T05:11:47.529Z,100.00
2023-03-21T05:14:19.200Z,100.00
2023-03-21T05:16:53.410Z,100.00
2023-03-21T05:19:23.369Z,100.00
2023-03-21T05:21:53.045Z,100.00
2023-03-21T05:24:25.601Z,100.00
2023-03-21T05:26:56.321Z,100.00
2023-03-21T05:29:31.650Z,100.00
2023-03-21T05:32:03.697Z,100.00
2023-03-21T05:34:32.149Z,100.00
2023-03-21T05:37:01.814Z,100.00
2023-03-21T05:39:47.122Z,100.00
2023-03-21T05:42:23.488Z,100.00
2023-03-21T05:44:51.821Z,100.00
2023-03-21T05:47:25.844Z,100.00
2023-03-21T05:49:56.411Z,100.00
2023-03-21T05:52:25.539Z,100.00
2023-03-21T05:54:55.333Z,100.00
2023-03-21T05:57:28.860Z,100.00
2023-03-21T06:00:00.093Z,100.00
2023-03-21T06:02:29.449Z,100.00
2023-03-21T06:05:01.983Z,100.00
2023-03-21T06:07:30.579Z,100.00
2023-03-21T06:10:00.178Z,100.00
2023-03-21T06:12:28.821Z,100.00
2023-03-21T06:15:11.306Z,100.00
2023-03-21T06:17:55.016Z,100.00
2023-03-21T06:20:23.255Z,100.00
2023-03-21T06:22:54.982Z,100.00
2023-03-21T06:25:24.667Z,100.00
2023-03-21T06:27:53.394Z,100.00
2023-03-21T06:30:22.444Z,100.00
2023-03-21T06:33:11.804Z,100.00
2023-03-21T06:35:42.328Z,100.00
2023-03-21T06:38:15.840Z,100.00
2023-03-21T06:40:48.378Z,100.00
2023-03-21T06:43:17.330Z,100.00
2023-03-21T06:45:46.545Z,100.00
2023-03-21T06:48:15.094Z,100.00
2023-03-21T06:50:52.255Z,100.00
2023-03-21T06:53:25.081Z,100.00
2023-03-21T06:56:15.897Z,100.00
2023-03-21T06:58:47.817Z,100.00
2023-03-21T07:01:38.512Z,100.00
2023-03-21T07:04:08.806Z,100.00
2023-03-21T07:06:38.195Z,100.00
2023-03-21T07:09:07.270Z,100.00
2023-03-21T07:11:38.508Z,100.00
2023-03-21T07:14:07.969Z,100.00
2023-03-21T07:16:36.300Z,100.00
2023-03-21T07:19:04.767Z,100.00
2023-03-21T07:21:33.196Z,99.88
2023-03-21T07:24:01.723Z,98.67
2023-03-21T07:26:29.974Z,95.76
2023-03-21T07:29:01.240Z,96.93
2023-03-21T07:31:29.671Z,96.37
2023-03-21T07:33:58.123Z,93.94
2023-03-21T07:36:26.491Z,93.88
2023-03-21T07:38:55.338Z,93.04
2023-03-21T07:41:26.156Z,92.18
2023-03-21T07:43:54.483Z,90.58
2023-03-21T07:46:25.101Z,90.14
2023-03-21T07:48:53.304Z,86.99
2023-03-21T07:51:22.134Z,85.08
2023-03-21T07:53:50.777Z,82.87
2023-03-21T07:56:19.303Z,80.65
2023-03-21T07:58:47.507Z,80.20
2023-03-21T08:01:18.017Z,75.93
2023-03-21T08:05:51.666Z,66.28
2023-03-21T08:08:19.930Z,68.98
2023-03-21T08:10:48.620Z,70.33
2023-03-21T08:13:17.206Z,70.56
2023-03-21T08:15:45.791Z,70.40
2023-03-21T08:18:14.016Z,67.68
2023-03-21T08:20:46.671Z,70.56
2023-03-21T08:23:16.119Z,74.20
2023-03-21T08:25:47.236Z,77.05
2023-03-21T08:28:17.549Z,78.33
2023-03-21T08:30:49.658Z,80.10
2023-03-21T08:33:18.836Z,80.10
2023-03-21T08:35:47.635Z,80.02
2023-03-21T08:38:17.356Z,76.53
2023-03-21T08:40:46.683Z,75.79
2023-03-21T08:43:15.134Z,70.89
2023-03-21T08:45:44.077Z,70.98
2023-03-21T08:48:14.519Z,70.99
2023-03-21T08:50:42.870Z,71.50
2023-03-21T08:53:13.977Z,68.79
2023-03-21T08:55:46.071Z,69.85
2023-03-21T08:58:16.726Z,70.73
2023-03-21T09:00:44.996Z,72.32
2023-03-21T09:03:13.450Z,72.69
2023-03-21T09:05:45.726Z,73.81
2023-03-21T09:08:14.300Z,76.37
2023-03-21T09:10:46.483Z,75.53
2023-03-21T09:13:14.580Z,74.60
2023-03-21T09:15:42.950Z,76.55
2023-03-21T09:18:15.692Z,78.49
2023-03-21T09:20:45.231Z,74.40
2023-03-21T09:23:14.994Z,73.11
2023-03-21T09:25:46.605Z,70.34
2023-03-21T09:28:18.525Z,69.34
2023-03-21T09:30:47.177Z,69.09
2023-03-21T09:33:25.797Z,66.49
2023-03-21T09:35:55.412Z,66.46
2023-03-21T09:38:30.393Z,66.22
2023-03-21T09:41:12.928Z,67.53
2023-03-21T09:43:56.067Z,68.29
2023-03-21T09:46:37.957Z,66.02
2023-03-21T09:49:10.666Z,65.52
2023-03-21T09:51:43.117Z,68.72
2023-03-21T09:54:19.169Z,68.61
2023-03-21T09:56:48.700Z,68.41
2023-03-21T09:59:27.466Z,69.05
2023-03-21T10:01:55.954Z,69.08
2023-03-21T10:04:25.164Z,65.93
2023-03-21T10:06:59.631Z,69.67
2023-03-21T10:09:29.259Z,72.00
2023-03-21T10:12:04.545Z,73.35
2023-03-21T10:14:40.486Z,77.59
2023-03-21T10:17:19.607Z,80.31
2023-03-21T10:19:52.214Z,81.44
2023-03-21T10:22:21.040Z,82.93
2023-03-21T10:24:49.238Z,84.58
2023-03-21T10:27:19.926Z,83.99
2023-03-21T10:29:53.369Z,84.66
2023-03-21T10:32:23.010Z,84.87
2023-03-21T10:37:25.962Z,80.05
2023-03-21T10:39:56.788Z,81.10
2023-03-21T10:42:27.105Z,80.84
2023-03-21T10:44:59.685Z,79.12
2023-03-21T10:47:33.594Z,80.50
2023-03-21T10:50:09.850Z,78.09
2023-03-21T10:52:47.079Z,80.75
2023-03-21T10:55:23.426Z,83.32
2023-03-21T10:57:57.594Z,85.20
2023-03-21T11:00:35.469Z,84.92
2023-03-21T11:03:04.707Z,87.49
2023-03-21T11:05:38.471Z,85.33
2023-03-21T11:08:12.014Z,87.23
2023-03-21T11:10:49.530Z,90.33
2023-03-21T11:13:20.555Z,92.04
2023-03-21T11:15:55.122Z,89.57
2023-03-21T11:18:25.124Z,94.61
2023-03-21T11:20:56.419Z,98.84
2023-03-21T11:23:29.777Z,100.00
2023-03-21T11:26:00.780Z,100.00
2023-03-21T11:28:37.468Z,100.00
2023-03-21T11:31:09.507Z,100.00
2023-03-21T11:33:40.340Z,100.00
2023-03-21T11:36:26.385Z,100.00
2023-03-21T11:38:59.785Z,100.00
2023-03-21T11:41:32.046Z,100.00
2023-03-21T11:44:01.679Z,100.00
2023-03-21T11:46:41.953Z,100.00
2023-03-21T11:49:11.718Z,96.75
2023-03-21T11:51:47.681Z,90.07
2023-03-21T11:54:20.868Z,88.75
2023-03-21T11:56:52.939Z,87.22
2023-03-21T11:59:34.518Z,86.39
2023-03-21T12:02:26.660Z,83.85
2023-03-21T12:05:04.515Z,80.91
2023-03-21T12:07:50.585Z,80.16
2023-03-21T12:10:34.117Z,81.13
2023-03-21T12:13:19.680Z,80.00
2023-03-21T12:15:55.842Z,74.74
2023-03-21T12:18:51.392Z,78.09
2023-03-21T12:21:24.564Z,77.32
2023-03-21T12:24:00.031Z,79.53
2023-03-21T12:26:33.026Z,75.68
2023-03-21T12:29:14.069Z,75.59
2023-03-21T12:31:57.657Z,74.02
2023-03-21T12:34:44.361Z,75.13
2023-03-21T12:37:24.572Z,73.86
2023-03-21T12:39:58.611Z,72.99
2023-03-21T12:42:42.949Z,74.67
2023-03-21T12:45:17.209Z,75.85
2023-03-21T12:47:50.406Z,74.64
2023-03-21T12:50:25.864Z,75.03
2023-03-21T12:52:59.510Z,74.91
2023-03-21T12:55:31.734Z,73.98
2023-03-21T12:58:05.817Z,73.51
2023-03-21T13:00:39.840Z,74.69
2023-03-21T13:03:14.174Z,75.05
2023-03-21T13:06:53.887Z,81.44
2023-03-21T13:09:37.588Z,83.39
2023-03-21T13:12:21.342Z,88.56
2023-03-21T13:15:07.882Z,97.43
2023-03-21T13:17:45.308Z,100.00
2023-03-21T13:20:23.735Z,100.00
2023-03-21T13:22:53.548Z,100.00
2023-03-21T13:25:24.285Z,100.00
2023-03-21T13:27:54.912Z,100.00
2023-03-21T13:30:26.631Z,100.00
2023-03-21T13:33:06.340Z,100.00
2023-03-21T13:35:38.663Z,100.00
2023-03-21T13:38:16.464Z,100.00
2023-03-21T13:40:48.884Z,100.00
2023-03-21T13:43:36.413Z,100.00
2023-03-21T13:46:10.586Z,100.00
2023-03-21T13:48:57.835Z,100.00
2023-03-21T13:51:47.889Z,100.00
2023-03-21T13:54:25.436Z,100.00
2023-03-21T13:56:55.915Z,100.00
2023-03-21T13:59:43.110Z,100.00
2023-03-21T14:02:28.514Z,100.00
2023-03-21T14:05:05.717Z,100.00
2023-03-21T14:07:36.969Z,100.00
2023-03-21T14:10:15.681Z,100.00
2023-03-21T14:12:48.698Z,100.00
2023-03-21T14:15:21.918Z,100.00
2023-03-21T14:17:52.623Z,100.00
2023-03-21T14:20:24.222Z,100.00
2023-03-21T14:22:53.858Z,100.00
2023-03-21T14:25:31.272Z,100.00
2023-03-21T14:28:04.305Z,100.00
2023-03-21T14:30:35.883Z,100.00
2023-03-21T14:33:17.408Z,100.00
2023-03-21T14:35:48.132Z,100.00
2023-03-21T14:38:21.890Z,100.00
2023-03-21T14:40:58.201Z,100.00
2023-03-21T14:43:27.756Z,100.00
2023-03-21T14:45:59.021Z,100.00
2023-03-21T14:48:32.334Z,100.00
2023-03-21T14:51:09.258Z,100.00
2023-03-21T14:53:41.032Z,100.00
2023-03-21T14:56:23.008Z,100.00
2023-03-21T14:58:56.209Z,100.00
2023-03-21T15:01:31.228Z,100.00
2023-03-21T15:04:01.085Z,100.00
2023-03-21T15:06:29.440Z,100.00
2023-03-21T15:08:59.674Z,100.00
2023-03-21T15:11:34.349Z,100.00
2023-03-21T15:14:08.065Z,100.00
2023-03-21T15:16:37.336Z,100.00
2023-03-21T15:19:07.265Z,100.00
2023-03-21T15:21:39.348Z,100.00
2023-03-21T15:24:13.988Z,100.00
2023-03-21T15:26:46.010Z,100.00
2023-03-21T15:29:16.218Z,100.00
2023-03-21T15:31:48.036Z,100.00
2023-03-21T15:34:22.925Z,100.00
2023-03-21T15:36:58.725Z,100.00
2023-03-21T15:39:29.864Z,100.00
2023-03-21T15:42:05.093Z,100.00
2023-03-21T15:44:35.930Z,100.00
2023-03-21T15:47:06.706Z,100.00
2023-03-21T15:49:41.390Z,100.00
2023-03-21T15:52:15.280Z,100.00
2023-03-21T15:54:45.752Z,100.00
2023-03-21T15:57:24.458Z,100.00
2023-03-21T15:59:57.716Z,100.00
2023-03-21T16:02:30.824Z,100.00
2023-03-21T16:05:01.482Z,100.00
2023-03-21T16:07:30.101Z,100.00
2023-03-21T16:10:01.432Z,100.00
2023-03-21T16:12:31.216Z,100.00
2023-03-21T16:14:59.450Z,100.00
2023-03-21T16:17:33.251Z,100.00
2023-03-21T16:20:17.845Z,100.00
2023-03-21T16:22:46.204Z,100.00
2023-03-21T16:25:14.534Z,100.00
2023-03-21T16:27:44.755Z,100.00
2023-03-21T16:30:14.227Z,100.00
2023-03-21T16:32:42.845Z,100.00
2023-03-21T16:35:11.363Z,100.00
2023-03-21T16:37:40.552Z,100.00
2023-03-21T16:40:22.977Z,100.00
2023-03-21T16:42:52.962Z,100.00
2023-03-21T16:45:21.457Z,100.00
2023-03-21T16:47:50.113Z,100.00
2023-03-21T16:50:27.876Z,100.00
2023-03-21T16:52:59.863Z,100.00
2023-03-21T16:55:28.375Z,100.00
2023-03-21T16:57:58.229Z,100.00
2023-03-21T17:00:29.219Z,100.00
2023-03-21T17:03:07.587Z,100.00
2023-03-21T17:05:38.969Z,100.00
2023-03-21T17:08:07.596Z,100.00
2023-03-21T17:10:38.673Z,100.00
2023-03-21T17:13:11.608Z,100.00
2023-03-21T17:15:41.524Z,100.00
2023-03-21T17:18:11.631Z,100.00
2023-03-21T17:20:41.725Z,100.00
2023-03-21T17:23:11.258Z,100.00
2023-03-21T17:25:39.615Z,100.00
2023-03-21T17:28:08.786Z,100.00
2023-03-21T17:30:40.307Z,100.00
2023-03-21T17:33:09.564Z,100.00
2023-03-21T17:35:38.065Z,100.00
2023-03-21T17:38:11.960Z,100.00
2023-03-21T17:40:40.805Z,100.00
2023-03-21T17:43:16.187Z,100.00
2023-03-21T17:45:46.121Z,100.00
2023-03-21T17:48:14.476Z,100.00
2023-03-21T17:50:44.552Z,100.00
2023-03-21T17:53:13.090Z,100.00
2023-03-21T17:55:46.301Z,100.00
2023-03-21T17:58:15.055Z,100.00
2023-03-21T18:00:43.550Z,100.00
2023-03-21T18:03:13.573Z,100.00
2023-03-21T18:08:09.788Z,100.00
2023-03-21T18:10:40.858Z,100.00
2023-03-21T18:13:11.925Z,100.00
2023-03-21T18:15:44.895Z,100.00
2023-03-21T18:18:14.532Z,100.00
2023-03-21T18:20:52.249Z,100.00
2023-03-21T18:23:26.105Z,100.00
2023-03-21T18:25:54.956Z,100.00
2023-03-21T18:28:23.610Z,100.00
2023-03-21T18:31:09.484Z,100.00
2023-03-21T18:33:42.361Z,100.00
2023-03-21T18:36:14.237Z,100.00
2023-03-21T18:38:44.866Z,100.00
2023-03-21T18:41:15.166Z,100.00
2023-03-21T18:44:05.611Z,100.00
2023-03-21T18:46:33.418Z,100.00
2023-03-21T18:49:26.989Z,100.00
2023-03-21T18:51:50.531Z,100.00
2023-03-21T18:54:23.807Z,100.00
2023-03-21T18:59:41.219Z,100.00
2023-03-21T19:02:09.797Z,100.00
2023-03-21T19:04:38.483Z,100.00
2023-03-21T19:07:08.118Z,100.00
2023-03-21T19:10:05.228Z,100.00
2023-03-21T19:12:29.782Z,100.00
2023-03-21T19:15:01.721Z,100.00
2023-03-21T19:20:19.430Z,100.00
2023-03-21T19:22:47.907Z,100.00
2023-03-21T19:25:18.386Z,100.00
2023-03-21T19:27:47.385Z,100.00
2023-03-21T19:30:16.244Z,100.00
2023-03-21T19:32:45.448Z,100.00
2023-03-21T19:35:14.469Z,100.00
2023-03-21T19:37:42.900Z,100.00
2023-03-21T19:40:12.359Z,100.00
2023-03-21T19:42:44.745Z,100.00
2023-03-21T19:45:14.038Z,100.00
2023-03-21T19:47:42.551Z,100.00
2023-03-21T19:53:03.142Z,100.00
2023-03-21T19:55:31.824Z,100.00
2023-03-21T19:58:02.119Z,100.00
2023-03-21T20:00:31.003Z,100.00
2023-03-21T20:02:59.588Z,100.00
2023-03-21T20:05:28.259Z,100.00
2023-03-21T20:07:59.022Z,100.00
2023-03-21T20:10:28.330Z,100.00
2023-03-21T20:12:57.312Z,100.00
2023-03-21T20:15:29.937Z,100.00
2023-03-21T20:17:58.922Z,100.00
2023-03-21T20:20:27.468Z,100.00
2023-03-21T20:23:06.792Z,100.00
2023-03-21T20:25:36.764Z,100.00
2023-03-21T20:28:15.656Z,100.00
2023-03-21T20:30:53.280Z,100.00
2023-03-21T20:33:22.464Z,100.00
2023-03-21T20:38:52.207Z,100.00
2023-03-21T20:41:20.984Z,100.00
2023-03-21T20:46:47.257Z,100.00
2023-03-21T20:49:15.914Z,100.00
2023-03-21T20:52:44.640Z,100.00
2023-03-21T20:54:35.572Z,100.00
2023-03-21T20:57:04.833Z,100.00
2023-03-21T20:59:33.825Z,100.00
2023-03-21T21:02:05.535Z,100.00
2023-03-21T21:05:05.120Z,100.00
2023-03-21T21:07:27.795Z,100.00
2023-03-21T21:09:56.346Z,100.00
2023-03-21T21:12:27.862Z,100.00
2023-03-21T21:14:57.253Z,100.00
2023-03-21T21:18:01.501Z,100.00
2023-03-21T21:20:17.752Z,100.00
2023-03-21T21:22:58.620Z,100.00
2023-03-21T21:25:29.168Z,100.00
2023-03-21T21:27:58.076Z,100.00
2023-03-21T21:30:26.584Z,100.00
2023-03-21T21:32:59.552Z,100.00
2023-03-21T21:35:27.963Z,100.00
2023-03-21T21:37:56.285Z,100.00
2023-03-21T21:40:25.834Z,100.00
2023-03-21T21:42:54.181Z,100.00
2023-03-21T21:45:22.515Z,100.00
2023-03-21T21:47:50.967Z,100.00
2023-03-21T21:50:22.504Z,100.00
2023-03-21T21:52:54.439Z,100.00
2023-03-21T21:55:23.311Z,100.00
2023-03-21T21:57:53.037Z,100.00
2023-03-21T22:00:25.014Z,100.00
2023-03-21T22:02:53.517Z,100.00
2023-03-21T22:05:23.213Z,100.00
2023-03-21T22:07:56.198Z,100.00
2023-03-21T22:10:27.367Z,100.00
2023-03-21T22:12:55.677Z,100.00
2023-03-21T22:15:23.987Z,100.00
2023-03-21T22:17:54.661Z,100.00
2023-03-21T22:20:24.514Z,100.00
2023-03-21T22:22:52.868Z,100.00
2023-03-21T22:25:23.832Z,100.00
2023-03-21T22:27:52.099Z,100.00
2023-03-21T22:30:20.371Z,100.00
2023-03-21T22:33:08.033Z,100.00
2023-03-21T22:35:38.803Z,100.00
2023-03-21T22:38:07.539Z,100.00
2023-03-21T22:40:35.942Z,100.00
2023-03-21T22:43:04.440Z,100.00
2023-03-21T22:45:34.867Z,100.00
2023-03-21T22:48:03.345Z,100.00
2023-03-21T22:53:20.890Z,100.00
2023-03-21T22:55:49.054Z,100.00
2023-03-21T22:58:17.389Z,100.00
2023-03-21T23:00:45.606Z,100.00
2023-03-21T23:03:14.650Z,100.00
2023-03-21T23:08:51.531Z,100.00
2023-03-21T23:11:20.073Z,100.00
2023-03-21T23:13:51.607Z,100.00
2023-03-21T23:16:27.774Z,100.00
2023-03-21T23:18:56.438Z,100.00
2023-03-21T23:21:25.968Z,100.00
2023-03-21T23:23:55.781Z,100.00
2023-03-21T23:26:24.981Z,100.00
2023-03-21T23:28:53.568Z,100.00
2023-03-21T23:31:23.585Z,100.00
2023-03-21T23:33:52.227Z,100.00
2023-03-21T23:36:22.424Z,100.00
2023-03-21T23:38:52.784Z,100.00
2023-03-21T23:41:26.084Z,100.00
2023-03-21T23:43:54.702Z,100.00
2023-03-21T23:46:23.160Z,100.00
2023-03-21T23:48:53.996Z,100.00
2023-03-21T23:51:24.959Z,100.00
2023-03-21T23:53:53.484Z,100.00
2023-03-21T23:56:28.525Z,100.00
2023-03-21T23:58:58.373Z,100.00
